createdAt,value
2018-12-19T00:00:40.417Z,18.02
2018-12-19T00:03:06.666Z,21.35
2018-12-19T00:05:32.905Z,20.75
2018-12-19T00:07:59.180Z,24.98
2018-12-19T00:10:25.512Z,22.32
2018-12-19T00:12:51.776Z,20.17
2018-12-19T00:15:18.018Z,22.37
2018-12-19T00:17:44.284Z,27.62
2018-12-19T00:20:10.566Z,22.65
2018-12-19T00:22:36.802Z,23.35
2018-12-19T00:25:03.610Z,23.10
2018-12-19T00:27:29.859Z,22.20
2018-12-19T00:29:56.094Z,23.60
2018-12-19T00:32:22.391Z,21.45
2018-12-19T00:34:48.645Z,25.05
2018-12-19T00:37:14.889Z,25.92
2018-12-19T00:39:41.168Z,28.23
2018-12-19T00:42:07.409Z,23.90
2018-12-19T00:44:33.634Z,24.67
2018-12-19T00:46:59.904Z,27.95
2018-12-19T00:49:26.160Z,26.90
2018-12-19T00:51:52.419Z,24.98
2018-12-19T00:54:18.799Z,28.10
2018-12-19T00:56:45.040Z,24.32
2018-12-19T00:59:11.323Z,21.30
2018-12-19T01:01:37.563Z,21.82
2018-12-19T01:04:03.814Z,26.70
2018-12-19T01:06:30.211Z,24.95
2018-12-19T01:08:56.442Z,24.12
2018-12-19T01:11:22.710Z,29.30
2018-12-19T01:13:48.951Z,24.35
2018-12-19T01:16:15.191Z,23.27
2018-12-19T01:18:41.455Z,27.32
2018-12-19T01:21:07.706Z,27.48
2018-12-19T01:23:33.993Z,25.92
2018-12-19T01:26:00.249Z,23.07
2018-12-19T01:28:26.492Z,25.23
2018-12-19T01:30:52.915Z,24.02
2018-12-19T01:33:19.156Z,22.62
2018-12-19T01:35:45.408Z,27.70
2018-12-19T01:38:11.679Z,30.45
2018-12-19T01:40:37.982Z,23.70
2018-12-19T01:43:04.251Z,27.37
2018-12-19T01:45:30.502Z,26.37
2018-12-19T01:47:56.916Z,25.12
2018-12-19T01:50:23.192Z,29.30
2018-12-19T01:52:49.475Z,21.87
2018-12-19T01:55:15.733Z,28.23
2018-12-19T01:57:42.006Z,25.50
2018-12-19T02:00:08.288Z,28.15
2018-12-19T02:02:34.591Z,26.07
2018-12-19T02:05:00.838Z,27.65
2018-12-19T02:07:27.110Z,28.90
2018-12-19T02:09:53.361Z,27.30
2018-12-19T02:12:19.750Z,25.90
2018-12-19T02:14:46.062Z,26.87
2018-12-19T02:17:12.319Z,25.15
2018-12-19T02:19:38.631Z,27.60
2018-12-19T02:22:04.987Z,25.00
2018-12-19T02:24:31.272Z,23.57
2018-12-19T02:26:57.530Z,26.55
2018-12-19T02:29:23.840Z,26.10
2018-12-19T02:31:50.266Z,28.02
2018-12-19T02:34:16.696Z,29.27
2018-12-19T02:36:42.963Z,24.15
2018-12-19T02:39:09.211Z,26.57
2018-12-19T02:41:35.528Z,27.52
2018-12-19T02:44:01.837Z,23.45
2018-12-19T02:46:28.128Z,26.05
2018-12-19T02:48:54.412Z,26.62
2018-12-19T02:51:20.743Z,30.25
2018-12-19T02:53:47.064Z,26.75
2018-12-19T02:56:13.381Z,26.93
2018-12-19T02:58:39.640Z,26.57
2018-12-19T03:01:05.935Z,23.18
2018-12-19T03:03:32.207Z,27.58
2018-12-19T03:05:58.511Z,24.35
2018-12-19T03:08:24.779Z,27.35
2018-12-19T03:10:51.268Z,26.68
2018-12-19T03:13:17.546Z,29.00
2018-12-19T03:15:43.805Z,31.17
2018-12-19T03:18:10.111Z,26.30
2018-12-19T03:20:36.380Z,27.85
2018-12-19T03:23:02.668Z,24.80
2018-12-19T03:25:28.997Z,29.35
2018-12-19T03:27:55.284Z,29.02
2018-12-19T03:30:21.580Z,23.67
2018-12-19T03:32:47.880Z,29.77
2018-12-19T03:35:14.187Z,28.92
2018-12-19T03:37:40.465Z,27.10
2018-12-19T03:40:06.979Z,26.62
2018-12-19T03:42:33.283Z,28.07
2018-12-19T03:44:59.543Z,28.35
2018-12-19T03:47:25.792Z,29.80
2018-12-19T03:49:52.123Z,28.67
2018-12-19T03:52:18.388Z,25.43
2018-12-19T03:54:44.821Z,23.98
2018-12-19T03:57:11.507Z,26.45
2018-12-19T03:59:37.778Z,24.95
2018-12-19T04:02:04.088Z,25.62
2018-12-19T04:04:30.367Z,29.82
2018-12-19T04:06:56.664Z,26.33
2018-12-19T04:09:22.947Z,28.95
2018-12-19T04:11:49.232Z,31.35
2018-12-19T04:14:15.496Z,28.00
2018-12-19T04:16:41.778Z,24.50
2018-12-19T04:19:08.043Z,24.35
2018-12-19T04:21:34.343Z,27.67
2018-12-19T04:24:00.592Z,25.20
2018-12-19T04:26:26.944Z,25.77
2018-12-19T04:28:53.232Z,27.50
2018-12-19T04:31:19.527Z,27.07
2018-12-19T04:33:45.790Z,22.22
2018-12-19T04:36:12.077Z,24.85
2018-12-19T04:38:38.582Z,26.45
2018-12-19T04:41:04.871Z,21.70
2018-12-19T04:43:31.139Z,24.75
2018-12-19T04:45:57.431Z,27.90
2018-12-19T04:48:23.706Z,21.73
2018-12-19T04:50:49.999Z,22.48
2018-12-19T04:53:16.383Z,19.25
2018-12-19T04:55:42.704Z,21.73
2018-12-19T04:58:09.011Z,21.12
2018-12-19T05:00:35.278Z,23.87
2018-12-19T05:03:01.581Z,24.65
2018-12-19T05:05:27.840Z,21.15
2018-12-19T05:07:54.378Z,20.62
2018-12-19T05:10:20.647Z,22.15
2018-12-19T05:12:46.916Z,24.67
2018-12-19T05:15:13.202Z,22.37
2018-12-19T05:17:39.476Z,20.90
2018-12-19T05:20:09.558Z,23.02
2018-12-19T05:22:35.863Z,20.37
2018-12-19T05:25:05.106Z,19.52
2018-12-19T05:27:31.357Z,17.65
2018-12-19T05:29:57.634Z,17.62
2018-12-19T05:32:23.915Z,20.25
2018-12-19T05:34:50.190Z,20.27
2018-12-19T05:37:16.457Z,24.18
2018-12-19T05:39:42.713Z,21.62
2018-12-19T05:42:09.005Z,22.50
2018-12-19T05:44:35.258Z,19.12
2018-12-19T05:47:01.532Z,21.57
2018-12-19T05:49:27.781Z,21.90
2018-12-19T05:51:54.092Z,22.37
2018-12-19T05:54:20.399Z,18.82
2018-12-19T05:56:46.658Z,25.25
2018-12-19T05:59:12.922Z,17.90
2018-12-19T06:01:39.194Z,20.72
2018-12-19T06:04:05.758Z,18.92
2018-12-19T06:06:32.046Z,17.85
2018-12-19T06:08:58.302Z,18.45
2018-12-19T06:11:24.673Z,17.52
2018-12-19T06:13:50.931Z,18.07
2018-12-19T06:16:17.262Z,19.40
2018-12-19T06:18:43.575Z,19.92
2018-12-19T06:21:09.828Z,19.62
2018-12-19T06:23:36.084Z,16.30
2018-12-19T06:26:02.367Z,18.37
2018-12-19T06:28:28.627Z,18.10
2018-12-19T06:30:54.896Z,14.85
2018-12-19T06:33:21.161Z,12.95
2018-12-19T06:35:47.418Z,13.75
2018-12-19T06:38:13.699Z,11.73
2018-12-19T06:40:39.960Z,13.13
2018-12-19T06:43:06.219Z,11.68
2018-12-19T06:45:32.493Z,13.72
2018-12-19T06:47:58.743Z,13.93
2018-12-19T06:50:24.990Z,14.30
2018-12-19T06:52:51.282Z,16.23
2018-12-19T06:55:17.523Z,14.65
2018-12-19T06:57:43.810Z,14.90
2018-12-19T07:00:10.183Z,14.23
2018-12-19T07:02:36.442Z,13.40
2018-12-19T07:05:03.771Z,15.60
2018-12-19T07:07:30.019Z,17.60
2018-12-19T07:09:56.270Z,17.92
2018-12-19T07:12:22.542Z,15.48
2018-12-19T07:14:48.924Z,17.80
2018-12-19T07:17:15.183Z,18.25
2018-12-19T07:19:41.452Z,17.32
2018-12-19T07:22:07.725Z,24.80
2018-12-19T07:24:33.981Z,19.75
2018-12-19T07:27:00.284Z,25.43
2018-12-19T07:29:26.555Z,27.90
2018-12-19T07:31:52.915Z,27.05
2018-12-19T07:34:19.200Z,26.95
2018-12-19T07:36:45.467Z,28.50
2018-12-19T07:39:11.732Z,30.15
2018-12-19T07:41:38.012Z,27.85
2018-12-19T07:44:04.242Z,31.37
2018-12-19T07:46:30.487Z,24.65
2018-12-19T07:48:56.791Z,25.80
2018-12-19T07:51:23.086Z,32.80
2018-12-19T07:53:49.336Z,27.82
2018-12-19T07:56:15.827Z,27.40
2018-12-19T07:58:42.148Z,24.47
2018-12-19T08:01:08.403Z,31.17
2018-12-19T08:03:34.839Z,31.12
2018-12-19T08:06:01.080Z,37.28
2018-12-19T08:08:27.362Z,37.17
2018-12-19T08:10:53.661Z,37.05
2018-12-19T08:13:19.916Z,39.42
2018-12-19T08:15:46.196Z,37.20
2018-12-19T08:18:12.480Z,34.40
2018-12-19T08:20:39.396Z,34.67
2018-12-19T08:23:05.670Z,34.03
2018-12-19T08:25:31.927Z,37.55
2018-12-19T08:27:58.199Z,37.63
2018-12-19T08:30:24.467Z,35.65
2018-12-19T08:32:50.718Z,35.55
2018-12-19T08:35:17.021Z,34.35
2018-12-19T08:37:43.274Z,38.78
2018-12-19T08:40:09.522Z,37.50
2018-12-19T08:42:35.799Z,34.40
2018-12-19T08:45:02.327Z,40.75
2018-12-19T08:47:28.598Z,39.13
2018-12-19T08:49:54.871Z,39.78
2018-12-19T08:52:21.139Z,40.15
2018-12-19T08:54:47.399Z,40.15
2018-12-19T08:57:13.697Z,34.70
2018-12-19T08:59:39.961Z,34.13
2018-12-19T09:02:06.267Z,33.23
2018-12-19T09:04:32.539Z,34.38
2018-12-19T09:06:58.779Z,37.50
2018-12-19T09:09:25.076Z,41.65
2018-12-19T09:11:51.363Z,40.05
2018-12-19T09:14:17.667Z,33.28
2018-12-19T09:16:43.951Z,38.55
2018-12-19T09:19:10.225Z,43.08
2018-12-19T09:21:36.489Z,39.98
2018-12-19T09:24:02.771Z,38.63
2018-12-19T09:26:29.041Z,41.90
2018-12-19T09:28:55.343Z,39.08
2018-12-19T09:31:21.601Z,40.17
2018-12-19T09:33:47.847Z,39.45
2018-12-19T09:36:14.137Z,38.38
2018-12-19T09:38:41.061Z,40.65
2018-12-19T09:41:12.301Z,40.50
2018-12-19T09:43:35.755Z,44.90
2018-12-19T09:46:02.012Z,37.88
2018-12-19T09:48:28.309Z,36.05
2018-12-19T09:50:54.579Z,39.85
2018-12-19T09:53:20.959Z,40.38
2018-12-19T09:55:47.230Z,47.85
2018-12-19T09:58:13.508Z,37.25
2018-12-19T10:00:39.818Z,41.83
2018-12-19T10:03:06.084Z,36.65
2018-12-19T10:05:32.327Z,35.03
2018-12-19T10:07:58.642Z,44.42
2018-12-19T10:10:25.014Z,37.70
2018-12-19T10:12:51.271Z,34.15
2018-12-19T10:15:17.546Z,36.65
2018-12-19T10:17:43.800Z,38.48
2018-12-19T10:20:10.203Z,37.35
2018-12-19T10:22:36.979Z,39.40
2018-12-19T10:25:10.662Z,39.33
2018-12-19T10:27:36.953Z,41.48
2018-12-19T10:30:06.959Z,49.98
2018-12-19T10:32:35.260Z,47.75
2018-12-19T10:35:01.536Z,41.37
2018-12-19T10:37:27.788Z,45.03
2018-12-19T10:39:54.196Z,39.10
2018-12-19T10:42:20.463Z,41.98
2018-12-19T10:44:46.730Z,38.63
2018-12-19T10:47:12.985Z,40.83
2018-12-19T10:49:39.267Z,38.73
2018-12-19T10:52:05.511Z,40.52
2018-12-19T10:54:31.767Z,41.10
2018-12-19T10:56:58.148Z,39.53
2018-12-19T10:59:24.403Z,39.10
2018-12-19T11:01:50.655Z,44.95
2018-12-19T11:04:16.953Z,43.78
2018-12-19T11:06:43.228Z,46.40
2018-12-19T11:09:09.524Z,41.90
2018-12-19T11:11:35.777Z,41.77
2018-12-19T11:14:02.065Z,45.05
2018-12-19T11:16:28.317Z,40.17
2018-12-19T11:18:54.577Z,38.55
2018-12-19T11:21:20.839Z,40.73
2018-12-19T11:23:47.143Z,40.55
2018-12-19T11:26:13.438Z,40.78
2018-12-19T11:28:39.699Z,43.40
2018-12-19T11:31:06.143Z,39.75
2018-12-19T11:33:32.402Z,43.83
2018-12-19T11:35:58.684Z,40.85
2018-12-19T11:38:24.978Z,39.80
2018-12-19T11:40:51.260Z,36.70
2018-12-19T11:43:17.534Z,36.08
2018-12-19T11:45:43.832Z,41.33
2018-12-19T11:48:10.104Z,33.70
2018-12-19T11:50:36.343Z,38.50
2018-12-19T11:53:02.612Z,37.30
2018-12-19T11:55:28.933Z,39.42
2018-12-19T11:57:55.198Z,35.68
2018-12-19T12:00:21.581Z,35.75
2018-12-19T12:02:47.900Z,35.75
2018-12-19T12:05:14.226Z,38.30
2018-12-19T12:07:40.652Z,32.65
2018-12-19T12:10:07.280Z,37.13
2018-12-19T12:12:33.564Z,34.50
2018-12-19T12:14:59.829Z,33.23
2018-12-19T12:17:26.133Z,30.60
2018-12-19T12:19:52.402Z,29.85
2018-12-19T12:22:18.702Z,30.62
2018-12-19T12:24:44.988Z,35.05
2018-12-19T12:27:11.259Z,32.17
2018-12-19T12:29:37.548Z,40.70
2018-12-19T12:32:03.836Z,32.35
2018-12-19T12:34:30.092Z,37.45
2018-12-19T12:36:56.382Z,36.08
2018-12-19T12:39:22.648Z,34.10
2018-12-19T12:41:52.311Z,29.75
2018-12-19T12:44:17.290Z,33.90
2018-12-19T12:46:43.685Z,33.35
2018-12-19T12:49:09.967Z,28.80
2018-12-19T12:51:36.674Z,34.55
2018-12-19T12:54:02.990Z,37.95
2018-12-19T12:56:29.289Z,35.03
2018-12-19T12:58:55.595Z,34.58
2018-12-19T13:01:21.940Z,34.10
2018-12-19T13:03:48.221Z,33.70
2018-12-19T13:06:14.475Z,37.58
2018-12-19T13:08:40.871Z,35.92
2018-12-19T13:11:07.317Z,36.58
2018-12-19T13:13:33.599Z,37.17
2018-12-19T13:15:59.938Z,36.20
2018-12-19T13:18:26.191Z,33.85
2018-12-19T13:20:52.457Z,35.75
2018-12-19T13:23:18.737Z,36.40
2018-12-19T13:25:45.053Z,33.23
2018-12-19T13:28:11.328Z,32.95
2018-12-19T13:30:37.579Z,35.95
2018-12-19T13:33:03.829Z,31.62
2018-12-19T13:35:30.114Z,37.00
2018-12-19T13:37:56.365Z,39.03
2018-12-19T13:40:22.614Z,40.43
2018-12-19T13:42:48.879Z,33.48
2018-12-19T13:45:15.176Z,33.67
2018-12-19T13:47:41.430Z,33.20
2018-12-19T13:50:07.786Z,38.05
2018-12-19T13:52:34.106Z,33.58
2018-12-19T13:55:00.421Z,38.13
2018-12-19T13:57:28.271Z,35.40
2018-12-19T13:59:54.913Z,34.90
2018-12-19T14:02:21.203Z,36.35
2018-12-19T14:04:47.724Z,35.00
2018-12-19T14:07:14.338Z,36.05
2018-12-19T14:09:40.619Z,35.33
2018-12-19T14:12:12.229Z,35.30
2018-12-19T14:14:35.239Z,34.15
2018-12-19T14:17:01.498Z,33.20
2018-12-19T14:19:27.776Z,31.90
2018-12-19T14:21:54.035Z,37.55
2018-12-19T14:24:20.294Z,37.63
2018-12-19T14:26:46.591Z,34.50
2018-12-19T14:29:12.865Z,38.98
2018-12-19T14:31:39.208Z,33.58
2018-12-19T14:34:05.451Z,36.85
2018-12-19T14:36:31.705Z,37.65
2018-12-19T14:38:58.040Z,37.98
2018-12-19T14:41:24.321Z,36.23
2018-12-19T14:43:50.600Z,42.38
2018-12-19T14:46:17.771Z,34.27
2018-12-19T14:48:44.034Z,38.28
2018-12-19T14:51:10.374Z,39.50
2018-12-19T14:53:36.631Z,38.48
2018-12-19T14:56:03.067Z,40.50
2018-12-19T14:58:29.318Z,35.35
2018-12-19T15:00:55.645Z,35.03
2018-12-19T15:03:21.915Z,36.60
2018-12-19T15:05:48.167Z,45.50
2018-12-19T15:08:14.447Z,39.25
2018-12-19T15:10:40.712Z,38.17
2018-12-19T15:13:07.013Z,39.55
2018-12-19T15:15:33.309Z,43.00
2018-12-19T15:17:59.578Z,42.03
2018-12-19T15:20:25.870Z,43.28
2018-12-19T15:22:52.147Z,41.83
2018-12-19T15:25:18.421Z,47.58
2018-12-19T15:27:44.691Z,44.95
2018-12-19T15:30:11.124Z,43.50
2018-12-19T15:32:38.149Z,39.27
2018-12-19T15:35:04.664Z,42.93
2018-12-19T15:37:30.974Z,42.53
2018-12-19T15:39:57.219Z,38.20
2018-12-19T15:42:23.518Z,39.30
2018-12-19T15:44:49.782Z,38.75
2018-12-19T15:47:16.044Z,38.53
2018-12-19T15:49:42.346Z,41.10
2018-12-19T15:52:08.594Z,45.63
2018-12-19T15:54:34.905Z,42.10
2018-12-19T15:57:01.203Z,40.28
2018-12-19T15:59:27.487Z,38.67
2018-12-19T16:01:53.734Z,40.60
2018-12-19T16:04:20.010Z,41.80
2018-12-19T16:06:46.260Z,42.85
2018-12-19T16:09:12.551Z,39.27
2018-12-19T16:11:38.902Z,40.00
2018-12-19T16:14:05.179Z,43.30
2018-12-19T16:16:31.450Z,39.25
2018-12-19T16:18:57.713Z,40.98
2018-12-19T16:21:23.981Z,41.98
2018-12-19T16:23:50.271Z,40.28
2018-12-19T16:26:16.541Z,34.20
2018-12-19T16:28:42.813Z,39.35
2018-12-19T16:31:09.259Z,40.03
2018-12-19T16:33:35.512Z,68.75
2018-12-19T16:36:01.794Z,102.80
2018-12-19T16:38:28.142Z,78.30
2018-12-19T16:40:54.436Z,44.67
2018-12-19T16:43:20.796Z,60.10
2018-12-19T16:45:47.150Z,80.38
2018-12-19T16:48:13.408Z,108.60
2018-12-19T16:50:39.823Z,77.08
2018-12-19T16:53:06.094Z,49.93
2018-12-19T16:55:32.364Z,45.17
2018-12-19T16:57:58.830Z,48.42
2018-12-19T17:00:25.536Z,38.00
2018-12-19T17:02:52.135Z,33.98
2018-12-19T17:05:18.428Z,40.67
2018-12-19T17:07:44.687Z,44.18
2018-12-19T17:10:10.984Z,39.40
2018-12-19T17:12:37.289Z,44.75
2018-12-19T17:15:04.184Z,44.73
2018-12-19T17:17:30.962Z,41.53
2018-12-19T17:19:57.287Z,41.73
2018-12-19T17:22:23.599Z,43.50
2018-12-19T17:24:49.872Z,44.03
2018-12-19T17:27:16.147Z,47.43
2018-12-19T17:29:42.792Z,42.30
2018-12-19T17:32:09.624Z,51.20
2018-12-19T17:34:36.161Z,46.23
2018-12-19T17:37:02.801Z,45.67
2018-12-19T17:39:29.101Z,47.70
2018-12-19T17:41:55.391Z,49.38
2018-12-19T17:44:21.643Z,51.05
2018-12-19T17:46:47.931Z,56.33
2018-12-19T17:49:14.924Z,56.50
2018-12-19T17:51:41.587Z,49.58
2018-12-19T17:54:07.966Z,49.27
2018-12-19T17:56:34.374Z,48.87
2018-12-19T17:59:00.943Z,51.63
2018-12-19T18:01:27.615Z,56.25
2018-12-19T18:03:54.015Z,52.88
2018-12-19T18:06:20.307Z,58.65
2018-12-19T18:08:46.603Z,52.80
2018-12-19T18:11:13.052Z,52.83
2018-12-19T18:13:40.239Z,68.47
2018-12-19T18:16:07.111Z,72.60
2018-12-19T18:18:33.508Z,62.43
2018-12-19T18:21:00.161Z,53.95
2018-12-19T18:23:26.916Z,59.48
2018-12-19T18:25:53.202Z,58.92
2018-12-19T18:28:19.586Z,55.88
2018-12-19T18:30:45.925Z,53.05
2018-12-19T18:33:12.183Z,53.83
2018-12-19T18:35:38.503Z,56.85
2018-12-19T18:38:05.193Z,52.15
2018-12-19T18:40:31.510Z,58.05
2018-12-19T18:42:58.145Z,53.73
2018-12-19T18:45:24.428Z,53.17
2018-12-19T18:47:50.728Z,57.17
2018-12-19T18:50:19.052Z,57.40
2018-12-19T18:52:45.779Z,61.15
2018-12-19T18:55:12.314Z,62.10
2018-12-19T18:57:38.745Z,57.58
2018-12-19T19:00:07.105Z,54.53
2018-12-19T19:02:33.679Z,50.67
2018-12-19T19:05:00.037Z,53.05
2018-12-19T19:07:26.355Z,60.95
2018-12-19T19:09:52.874Z,51.48
2018-12-19T19:12:19.182Z,53.50
2018-12-19T19:14:45.508Z,56.45
2018-12-19T19:17:11.823Z,59.33
2018-12-19T19:19:38.107Z,59.65
2018-12-19T19:22:04.504Z,55.88
2018-12-19T19:24:30.795Z,57.50
2018-12-19T19:26:57.086Z,54.75
2018-12-19T19:29:23.364Z,58.48
2018-12-19T19:31:49.667Z,56.37
2018-12-19T19:34:16.070Z,58.58
2018-12-19T19:36:42.346Z,52.25
2018-12-19T19:39:08.627Z,61.25
2018-12-19T19:41:34.940Z,60.80
2018-12-19T19:44:01.267Z,55.15
2018-12-19T19:46:27.570Z,55.17
2018-12-19T19:48:53.847Z,53.68
2018-12-19T19:51:20.131Z,52.58
2018-12-19T19:53:46.453Z,60.98
2018-12-19T19:56:12.795Z,62.65
2018-12-19T19:58:39.039Z,55.10
2018-12-19T20:01:05.338Z,58.35
2018-12-19T20:03:31.664Z,61.20
2018-12-19T20:05:58.074Z,56.77
2018-12-19T20:08:24.357Z,56.53
2018-12-19T20:10:50.666Z,60.75
2018-12-19T20:13:16.941Z,52.67
2018-12-19T20:15:43.294Z,53.58
2018-12-19T20:18:09.641Z,54.93
2018-12-19T20:20:35.907Z,53.05
2018-12-19T20:23:02.254Z,52.38
2018-12-19T20:25:28.594Z,56.88
2018-12-19T20:27:54.944Z,52.65
2018-12-19T20:30:21.387Z,55.35
2018-12-19T20:32:47.672Z,51.25
2018-12-19T20:35:13.974Z,54.88
2018-12-19T20:37:40.321Z,54.18
2018-12-19T20:40:06.704Z,55.73
2018-12-19T20:42:33.000Z,50.33
2018-12-19T20:44:59.399Z,55.48
2018-12-19T20:47:25.688Z,55.08
2018-12-19T20:49:52.010Z,50.88
2018-12-19T20:52:18.271Z,54.38
2018-12-19T20:54:44.593Z,55.35
2018-12-19T20:57:11.056Z,55.85
2018-12-19T20:59:37.356Z,57.40
2018-12-19T21:02:04.034Z,53.75
2018-12-19T21:04:30.339Z,56.13
2018-12-19T21:06:56.691Z,53.80
2018-12-19T21:09:22.985Z,54.95
2018-12-19T21:11:49.319Z,51.58
2018-12-19T21:14:15.678Z,53.65
2018-12-19T21:16:48.027Z,52.33
2018-12-19T21:19:14.305Z,46.18
2018-12-19T21:21:40.578Z,48.20
2018-12-19T21:24:06.839Z,44.53
2018-12-19T21:26:33.105Z,45.63
2018-12-19T21:28:59.364Z,45.43
2018-12-19T21:31:25.636Z,47.43
2018-12-19T21:33:51.951Z,48.23
2018-12-19T21:36:18.244Z,49.55
2018-12-19T21:38:44.577Z,42.83
2018-12-19T21:41:10.934Z,47.50
2018-12-19T21:43:37.232Z,48.75
2018-12-19T21:46:03.529Z,46.20
2018-12-19T21:48:29.921Z,45.38
2018-12-19T21:50:56.180Z,44.67
2018-12-19T21:53:22.498Z,46.40
2018-12-19T21:55:48.852Z,46.37
2018-12-19T21:58:15.182Z,45.67
2018-12-19T22:00:41.550Z,45.08
2018-12-19T22:03:08.282Z,48.90
2018-12-19T22:05:34.596Z,46.70
2018-12-19T22:08:00.856Z,47.50
2018-12-19T22:10:27.148Z,47.98
2018-12-19T22:12:53.492Z,45.38
2018-12-19T22:15:19.865Z,50.28
2018-12-19T22:17:47.090Z,49.73
2018-12-19T22:20:13.471Z,47.85
2018-12-19T22:22:39.861Z,48.90
2018-12-19T22:25:06.167Z,47.03
2018-12-19T22:27:32.524Z,46.70
2018-12-19T22:29:58.915Z,49.83
2018-12-19T22:32:25.459Z,49.23
2018-12-19T22:34:51.707Z,50.15
2018-12-19T22:37:18.113Z,49.40
2018-12-19T22:39:44.370Z,45.67
2018-12-19T22:42:10.669Z,59.50
2018-12-19T22:44:37.023Z,48.95
2018-12-19T22:47:03.460Z,51.15
2018-12-19T22:49:29.819Z,48.50
2018-12-19T22:51:56.126Z,53.05
2018-12-19T22:54:22.582Z,49.38
2018-12-19T22:56:48.988Z,55.20
2018-12-19T22:59:15.324Z,57.55
2018-12-19T23:01:47.871Z,55.45
2018-12-19T23:04:14.268Z,48.13
2018-12-19T23:06:40.639Z,51.63
2018-12-19T23:09:07.134Z,49.45
2018-12-19T23:11:33.459Z,49.80
2018-12-19T23:13:59.909Z,50.58
2018-12-19T23:16:26.694Z,50.63
2018-12-19T23:18:53.035Z,46.68
2018-12-19T23:21:19.618Z,51.77
2018-12-19T23:23:45.907Z,49.55
2018-12-19T23:26:12.230Z,44.18
2018-12-19T23:28:38.520Z,45.30
2018-12-19T23:31:04.840Z,58.10
2018-12-19T23:33:31.127Z,45.38
2018-12-19T23:35:57.471Z,53.92
2018-12-19T23:38:23.888Z,53.48
2018-12-19T23:40:50.212Z,54.75
2018-12-19T23:43:16.488Z,51.37
2018-12-19T23:45:42.771Z,51.60
2018-12-19T23:48:09.272Z,50.05
2018-12-19T23:50:35.776Z,54.35
2018-12-19T23:53:02.355Z,56.13
2018-12-19T23:55:28.754Z,52.03
2018-12-19T23:57:55.160Z,51.90
